Time;durP1;ratioP1;P1;durP2;ratioP2;P2;SDS_P1;SDS_P2;PMS_P1;PMS_P2;Temp;Humidity;BMP_temperature;BMP_pressure;BME280_temperature;BME280_humidity;BME280_pressure;Samples;Min_cycle;Max_cycle;Signal;HPM_P1;HPM_P2
2021/01/19 00:00:10;;;;;;;5.27;4.07;;;1.80;99.90;;;;;;5092761;28;20297;-51
2021/01/19 00:02:38;;;;;;;6.00;4.20;;;1.70;99.90;;;;;;5092841;28;20580;-50
2021/01/19 00:05:06;;;;;;;5.87;4.30;;;1.70;99.90;;;;;;5092695;28;20297;-49
2021/01/19 00:07:33;;;;;;;6.47;4.30;;;1.70;99.90;;;;;;5092539;28;20211;-50
2021/01/19 00:10:00;;;;;;;5.07;4.03;;;1.60;99.90;;;;;;5092827;28;20304;-50
2021/01/19 00:12:27;;;;;;;4.37;3.97;;;1.60;99.90;;;;;;5092178;28;20739;-51
2021/01/19 00:14:55;;;;;;;6.43;4.00;;;1.60;99.90;;;;;;5092312;28;20748;-51
2021/01/19 00:17:22;;;;;;;7.07;4.90;;;1.60;99.90;;;;;;5092280;28;20234;-54
2021/01/19 00:19:49;;;;;;;7.13;5.00;;;1.50;99.90;;;;;;5092301;28;20297;-50
2021/01/19 00:22:16;;;;;;;4.57;4.10;;;1.50;99.90;;;;;;5092162;28;20700;-53
2021/01/19 00:24:43;;;;;;;5.13;4.47;;;1.50;99.90;;;;;;5092180;28;20238;-53
2021/01/19 00:27:10;;;;;;;6.20;4.77;;;1.50;99.90;;;;;;5092280;28;20207;-49
2021/01/19 00:29:37;;;;;;;5.67;4.10;;;1.50;99.90;;;;;;5092366;28;20301;-53
2021/01/19 00:32:06;;;;;;;4.90;3.97;;;1.40;99.90;;;;;;5092238;28;20343;-52
2021/01/19 00:34:32;;;;;;;6.07;4.80;;;1.40;99.90;;;;;;5092161;28;20627;-57
2021/01/19 00:36:59;;;;;;;6.17;4.40;;;1.40;99.90;;;;;;5092007;28;20317;-54
2021/01/19 00:39:26;;;;;;;7.15;4.30;;;1.40;99.90;;;;;;5092170;28;20207;-53
2021/01/19 00:41:53;;;;;;;4.87;4.20;;;1.40;99.90;;;;;;5092009;28;20237;-53
2021/01/19 00:44:20;;;;;;;5.83;4.27;;;1.40;99.90;;;;;;5092142;28;20302;-53
2021/01/19 00:46:50;;;;;;;5.43;4.27;;;1.40;99.90;;;;;;5092104;28;20580;-56
2021/01/19 00:49:19;;;;;;;5.13;4.37;;;1.40;99.90;;;;;;5091840;28;20245;-55
2021/01/19 00:51:46;;;;;;;4.83;4.20;;;1.40;99.90;;;;;;5092517;28;20248;-56
2021/01/19 00:54:13;;;;;;;5.30;4.30;;;1.30;99.90;;;;;;5091926;28;20606;-57
2021/01/19 00:56:41;;;;;;;7.20;4.30;;;1.30;99.90;;;;;;5092114;28;20214;-54
2021/01/19 00:59:09;;;;;;;6.00;4.50;;;1.30;99.90;;;;;;5092062;28;20582;-57
2021/01/19 01:01:45;;;;;;;5.17;4.30;;;1.30;99.90;;;;;;5091906;28;20262;-52
2021/01/19 01:04:12;;;;;;;7.17;4.47;;;1.30;99.90;;;;;;5091874;28;20210;-56
2021/01/19 01:06:40;;;;;;;5.67;4.37;;;1.30;99.90;;;;;;5091992;28;20207;-56
2021/01/19 01:09:07;;;;;;;5.97;3.97;;;1.20;99.90;;;;;;5092045;28;20246;-54
2021/01/19 01:11:39;;;;;;;5.43;4.40;;;1.20;99.90;;;;;;5091729;28;20206;-54
2021/01/19 01:14:07;;;;;;;5.13;4.37;;;1.20;99.90;;;;;;5092018;28;20253;-57
2021/01/19 01:16:36;;;;;;;5.63;3.80;;;1.20;99.90;;;;;;5092041;28;20206;-55
2021/01/19 01:19:03;;;;;;;5.60;4.60;;;1.30;99.90;;;;;;5091989;28;20214;-54
2021/01/19 01:21:33;;;;;;;6.33;4.23;;;1.20;99.90;;;;;;5091875;28;20728;-57
2021/01/19 01:24:01;;;;;;;4.80;4.27;;;1.30;99.90;;;;;;5092146;28;20246;-56
2021/01/19 01:26:29;;;;;;;4.93;4.43;;;1.30;99.90;;;;;;5091726;28;20210;-56
2021/01/19 01:28:56;;;;;;;6.13;4.33;;;1.30;99.90;;;;;;5092151;28;20238;-54
2021/01/19 01:31:23;;;;;;;6.57;4.33;;;1.30;99.90;;;;;;5095599;28;20209;-58
2021/01/19 01:33:50;;;;;;;6.27;4.47;;;1.30;99.90;;;;;;5095650;28;20209;-57
2021/01/19 01:36:17;;;;;;;5.97;4.60;;;1.30;99.90;;;;;;5096009;28;20206;-59
2021/01/19 01:38:44;;;;;;;9.33;4.80;;;1.30;99.90;;;;;;5095748;28;20214;-55
2021/01/19 01:41:14;;;;;;;5.10;4.57;;;1.30;99.90;;;;;;5095563;28;20230;-58
2021/01/19 01:43:40;;;;;;;5.20;4.63;;;1.30;99.90;;;;;;5095614;28;20306;-58
2021/01/19 01:46:10;;;;;;;6.23;4.57;;;1.30;99.90;;;;;;5095444;28;20301;-55
2021/01/19 01:48:39;;;;;;;4.93;4.40;;;1.30;99.90;;;;;;5095729;28;20256;-55
2021/01/19 01:51:07;;;;;;;5.17;4.67;;;1.30;99.90;;;;;;5095701;28;20237;-57
2021/01/19 01:53:36;;;;;;;7.23;4.87;;;1.30;99.90;;;;;;5095317;28;20285;-57
2021/01/19 01:56:05;;;;;;;4.93;4.47;;;1.30;99.90;;;;;;5095318;28;20257;-59
2021/01/19 01:58:34;;;;;;;5.03;4.53;;;1.30;99.90;;;;;;5095563;28;20298;-59
2021/01/19 02:01:01;;;;;;;5.27;4.77;;;1.30;99.90;;;;;;5095082;28;20700;-58
2021/01/19 02:03:29;;;;;;;6.23;5.20;;;1.20;99.90;;;;;;5095006;28;20669;-56
2021/01/19 02:05:56;;;;;;;5.70;5.10;;;1.20;99.90;;;;;;5095157;28;20248;-55
2021/01/19 02:08:30;;;;;;;6.77;5.70;;;1.20;99.90;;;;;;5094881;28;20656;-56
2021/01/19 02:11:10;;;;;;;6.10;5.13;;;1.20;99.90;;;;;;5095159;28;20242;-54
2021/01/19 02:13:47;;;;;;;5.90;5.20;;;1.10;99.90;;;;;;5094743;28;20243;-55
2021/01/19 02:16:30;;;;;;;5.87;5.27;;;1.10;99.90;;;;;;5094995;28;20238;-57
2021/01/19 02:19:14;;;;;;;7.17;5.53;;;1.10;99.90;;;;;;5094873;28;20260;-54
2021/01/19 02:22:14;;;;;;;5.40;4.90;;;1.10;99.90;;;;;;5095102;28;20222;-50
2021/01/19 02:24:53;;;;;;;6.13;4.87;;;1.10;99.90;;;;;;5094944;28;20207;-54
2021/01/19 02:27:44;;;;;;;5.77;5.13;;;1.10;99.90;;;;;;5094750;28;20238;-60
2021/01/19 02:30:28;;;;;;;8.43;5.57;;;1.10;99.90;;;;;;5085746;28;20630;-52
2021/01/19 02:33:10;;;;;;;8.23;6.07;;;1.00;99.90;;;;;;5094773;28;20294;-54
2021/01/19 02:35:46;;;;;;;8.23;5.87;;;1.10;99.90;;;;;;5094611;28;20311;-56
2021/01/19 02:38:22;;;;;;;6.63;5.93;;;1.10;99.90;;;;;;5094885;28;20221;-53
2021/01/19 02:40:54;;;;;;;7.00;5.43;;;1.00;99.90;;;;;;5093419;28;20258;-51
2021/01/19 02:43:25;;;;;;;7.27;5.43;;;1.00;99.90;;;;;;5094536;28;20596;-58
2021/01/19 02:45:53;;;;;;;10.00;5.97;;;1.10;99.90;;;;;;5094509;28;20268;-54
2021/01/19 02:48:22;;;;;;;7.33;6.00;;;1.10;99.90;;;;;;5094329;28;20302;-53
2021/01/19 02:50:49;;;;;;;7.63;6.57;;;1.10;99.90;;;;;;5094409;28;20234;-56
2021/01/19 02:53:17;;;;;;;6.60;5.90;;;1.10;99.90;;;;;;5094426;28;20305;-54
2021/01/19 02:55:45;;;;;;;7.73;5.73;;;1.00;99.90;;;;;;5094354;28;20238;-53
2021/01/19 02:58:22;;;;;;;8.30;6.20;;;1.00;99.90;;;;;;5094077;28;20234;-55
2021/01/19 03:01:04;;;;;;;8.73;6.33;;;1.00;99.90;;;;;;5094126;28;20216;-54
2021/01/19 03:03:35;;;;;;;6.90;5.60;;;1.10;99.90;;;;;;5094685;28;20614;-54
2021/01/19 03:06:10;;;;;;;6.83;5.87;;;1.10;99.90;;;;;;5094093;28;20303;-55
2021/01/19 03:08:40;;;;;;;7.13;6.07;;;1.10;99.90;;;;;;5094116;28;20736;-52
2021/01/19 03:11:07;;;;;;;6.50;5.37;;;1.10;99.90;;;;;;5093777;28;20249;-51
2021/01/19 03:13:34;;;;;;;7.40;5.70;;;1.10;99.90;;;;;;5093719;28;20291;-53
2021/01/19 03:16:06;;;;;;;7.37;6.67;;;1.10;99.90;;;;;;5093927;28;20263;-56
2021/01/19 03:18:35;;;;;;;8.40;6.03;;;1.10;99.90;;;;;;5093595;28;20705;-56
2021/01/19 03:21:03;;;;;;;6.35;5.05;;;1.10;99.90;;;;;;5093743;28;20636;-53
2021/01/19 03:23:31;;;;;;;6.87;5.63;;;1.10;99.90;;;;;;5093676;28;20214;-51
2021/01/19 03:25:58;;;;;;;7.20;5.50;;;1.20;99.90;;;;;;5093479;28;20249;-53
2021/01/19 03:28:25;;;;;;;6.40;5.53;;;1.20;99.90;;;;;;5093716;28;20253;-56
2021/01/19 03:30:52;;;;;;;6.63;5.60;;;1.20;99.90;;;;;;5093564;28;20242;-50
2021/01/19 03:33:19;;;;;;;6.55;5.60;;;1.20;99.90;;;;;;5093495;28;20263;-53
2021/01/19 03:35:48;;;;;;;7.77;5.73;;;1.20;99.90;;;;;;5093141;28;20230;-54
2021/01/19 03:38:15;;;;;;;8.13;5.97;;;1.20;99.90;;;;;;5093221;28;20210;-54
2021/01/19 03:40:43;;;;;;;5.53;4.93;;;1.30;99.90;;;;;;5093430;28;20301;-56
2021/01/19 03:43:10;;;;;;;5.97;5.43;;;1.20;99.90;;;;;;5093284;28;20231;-52
2021/01/19 03:45:38;;;;;;;6.17;5.07;;;1.20;99.90;;;;;;5093347;28;20612;-53
2021/01/19 03:48:06;;;;;;;7.50;5.10;;;1.10;99.90;;;;;;5093017;28;20207;-54
2021/01/19 03:50:34;;;;;;;6.30;5.17;;;1.10;99.90;;;;;;5093061;28;20211;-55
2021/01/19 03:53:02;;;;;;;8.30;5.50;;;1.00;99.90;;;;;;5092629;28;20242;-55
2021/01/19 03:55:30;;;;;;;7.90;5.50;;;1.00;99.90;;;;;;5092819;28;20637;-51
2021/01/19 03:57:57;;;;;;;7.20;6.17;;;1.00;99.90;;;;;;5093142;28;20210;-53
2021/01/19 04:00:24;;;;;;;8.53;5.43;;;1.00;99.90;;;;;;5092959;28;20294;-55
2021/01/19 04:02:51;;;;;;;9.43;6.90;;;1.00;99.90;;;;;;5092829;28;20254;-52
2021/01/19 04:05:18;;;;;;;8.50;6.70;;;1.00;99.90;;;;;;5092827;28;20237;-53
2021/01/19 04:07:46;;;;;;;8.50;6.67;;;1.00;99.90;;;;;;5092957;28;20261;-53
2021/01/19 04:10:15;;;;;;;7.57;6.87;;;1.00;99.90;;;;;;5092823;28;20252;-52
2021/01/19 04:12:46;;;;;;;9.27;6.20;;;1.10;99.90;;;;;;5092905;28;20245;-53
2021/01/19 04:15:14;;;;;;;5.57;4.97;;;1.00;99.90;;;;;;5092650;28;20238;-55
2021/01/19 04:17:41;;;;;;;6.90;6.30;;;1.00;99.90;;;;;;5092606;28;20202;-56
2021/01/19 04:20:09;;;;;;;9.77;8.13;;;1.00;99.90;;;;;;5092730;28;20203;-52
2021/01/19 04:22:37;;;;;;;12.53;8.23;;;0.90;99.90;;;;;;5092264;28;20226;-55
2021/01/19 04:25:05;;;;;;;12.70;8.77;;;0.90;99.90;;;;;;5092474;28;20228;-54
2021/01/19 04:27:33;;;;;;;10.63;7.87;;;0.90;99.90;;;;;;5092388;28;20752;-55
2021/01/19 04:30:04;;;;;;;11.60;9.30;;;0.80;99.90;;;;;;5092294;28;20247;-57
2021/01/19 04:32:31;;;;;;;14.60;11.30;;;0.60;99.90;;;;;;5092346;28;20214;-57
2021/01/19 04:34:58;;;;;;;27.13;15.93;;;0.70;99.90;;;;;;5092549;28;20242;-57
2021/01/19 04:37:26;;;;;;;17.03;11.40;;;0.60;99.90;;;;;;5092418;28;20644;-55
2021/01/19 04:39:53;;;;;;;11.53;9.87;;;0.50;99.90;;;;;;5092392;28;20297;-57
2021/01/19 04:42:20;;;;;;;9.67;8.00;;;0.40;99.90;;;;;;5092595;28;20262;-41
2021/01/19 04:44:53;;;;;;;11.00;8.37;;;0.40;99.90;;;;;;5092192;28;20207;-52
2021/01/19 04:47:20;;;;;;;9.57;8.10;;;0.30;99.90;;;;;;5092459;28;20260;-55
2021/01/19 04:49:52;;;;;;;12.37;8.80;;;0.30;99.90;;;;;;5092397;28;20210;-54
2021/01/19 04:52:22;;;;;;;11.03;8.73;;;0.30;99.90;;;;;;5092080;28;20733;-53
2021/01/19 04:55:04;;;;;;;12.23;8.63;;;0.30;99.90;;;;;;5092843;28;20631;-53
2021/01/19 04:57:33;;;;;;;10.17;7.70;;;0.20;99.90;;;;;;5092155;28;20210;-61
2021/01/19 05:00:05;;;;;;;13.20;9.80;;;0.20;99.90;;;;;;5092122;28;20214;-50
2021/01/19 05:03:10;;;;;;;9.37;7.77;;;0.10;99.90;;;;;;5091986;28;20254;-52
2021/01/19 05:06:00;;;;;;;12.10;8.83;;;0.10;99.90;;;;;;5095006;28;20329;-50
2021/01/19 05:08:47;;;;;;;12.37;9.03;;;0.10;99.90;;;;;;5096380;28;20210;-53
2021/01/19 05:11:22;;;;;;;10.53;7.73;;;0.10;99.90;;;;;;5096156;28;20642;-55
2021/01/19 05:13:52;;;;;;;10.63;9.17;;;0.10;99.90;;;;;;5095741;28;20700;-52
2021/01/19 05:16:22;;;;;;;12.07;9.63;;;0.10;99.90;;;;;;5095916;28;20260;-54
2021/01/19 05:18:50;;;;;;;9.90;8.13;;;0.00;99.90;;;;;;5095795;28;20740;-49
2021/01/19 05:21:17;;;;;;;39.90;24.63;;;0.00;99.90;;;;;;5095867;28;20644;-54
2021/01/19 05:23:45;;;;;;;10.80;8.93;;;0.00;99.90;;;;;;5095876;28;20310;-50
2021/01/19 05:26:13;;;;;;;13.10;10.60;;;-0.10;99.90;;;;;;5095705;28;20289;-53
2021/01/19 05:28:43;;;;;;;9.33;8.03;;;-0.20;99.90;;;;;;5095618;28;20282;-53
2021/01/19 05:31:28;;;;;;;13.03;9.07;;;-0.20;99.90;;;;;;5095834;28;20289;-55
2021/01/19 05:34:05;;;;;;;12.17;9.03;;;-0.20;99.90;;;;;;5095955;28;20259;-55
2021/01/19 05:36:38;;;;;;;9.73;8.27;;;-0.30;99.90;;;;;;5095891;28;20241;-57
2021/01/19 05:39:07;;;;;;;27.37;17.43;;;-0.40;99.90;;;;;;5095808;28;20228;-53
2021/01/19 05:41:37;;;;;;;10.70;8.73;;;-0.30;99.90;;;;;;5095977;28;20234;-51
2021/01/19 05:44:19;;;;;;;8.93;7.30;;;-0.30;99.90;;;;;;5095832;28;20206;-55
2021/01/19 05:46:51;;;;;;;16.20;12.27;;;-0.30;99.90;;;;;;5095675;28;20699;-51
2021/01/19 05:49:21;;;;;;;10.53;7.70;;;-0.30;99.90;;;;;;5095577;28;20301;-58
2021/01/19 05:51:50;;;;;;;12.63;9.77;;;-0.30;99.90;;;;;;5095501;28;20617;-52
2021/01/19 05:54:26;;;;;;;8.70;7.73;;;-0.20;99.90;;;;;;5095598;28;20293;-52
2021/01/19 05:57:00;;;;;;;10.53;9.07;;;-0.20;99.90;;;;;;5095327;28;20210;-54
2021/01/19 05:59:38;;;;;;;8.83;6.93;;;-0.10;99.90;;;;;;5095043;28;20206;-50
2021/01/19 06:02:08;;;;;;;7.50;6.70;;;-0.10;99.90;;;;;;5094973;28;20332;-51
2021/01/19 06:04:38;;;;;;;13.20;8.87;;;-0.10;99.90;;;;;;5095368;28;20272;-54
2021/01/19 06:07:05;;;;;;;7.60;6.30;;;-0.10;99.90;;;;;;5095411;28;20242;-48
2021/01/19 06:09:33;;;;;;;7.60;6.57;;;-0.10;99.90;;;;;;5095028;28;20250;-50
2021/01/19 06:12:01;;;;;;;8.10;7.30;;;-0.10;99.90;;;;;;5094864;28;20670;-52
2021/01/19 06:14:29;;;;;;;9.03;6.53;;;-0.10;99.90;;;;;;5095003;28;20215;-50
2021/01/19 06:17:09;;;;;;;9.43;6.90;;;0.00;99.90;;;;;;5094846;28;20293;-53
2021/01/19 06:19:37;;;;;;;7.57;6.50;;;-0.10;99.90;;;;;;5094780;28;20202;-52
2021/01/19 06:22:06;;;;;;;17.03;11.13;;;-0.10;99.90;;;;;;5094864;28;20325;-53
2021/01/19 06:24:40;;;;;;;20.57;12.40;;;-0.10;99.90;;;;;;5094630;28;20256;-54
2021/01/19 06:27:08;;;;;;;11.13;8.07;;;-0.10;99.90;;;;;;5094561;28;20635;-56
2021/01/19 06:29:35;;;;;;;9.03;7.33;;;-0.10;99.90;;;;;;5094785;28;20301;-57
2021/01/19 06:32:05;;;;;;;8.20;6.37;;;-0.20;99.90;;;;;;5094685;28;20203;-56
2021/01/19 06:34:37;;;;;;;9.80;6.90;;;-0.20;99.90;;;;;;5094741;28;20230;-53
2021/01/19 06:37:05;;;;;;;7.73;6.50;;;-0.30;99.90;;;;;;5094505;28;20242;-50
2021/01/19 06:39:40;;;;;;;7.40;5.87;;;-0.30;99.90;;;;;;5094207;28;20339;-55
2021/01/19 06:42:12;;;;;;;7.37;5.80;;;-0.30;99.90;;;;;;5094454;28;20229;-55
2021/01/19 06:44:45;;;;;;;11.70;7.13;;;-0.40;99.90;;;;;;5094188;28;20264;-51
2021/01/19 06:47:14;;;;;;;9.03;5.63;;;-0.40;99.90;;;;;;5094318;28;20299;-52
2021/01/19 06:49:56;;;;;;;18.93;10.13;;;-0.40;99.90;;;;;;5094189;28;20206;-53
2021/01/19 06:52:23;;;;;;;19.37;11.77;;;-0.40;99.90;;;;;;5093872;28;20243;-51
2021/01/19 06:55:05;;;;;;;11.23;7.30;;;-0.50;99.90;;;;;;5094031;28;20297;-56
2021/01/19 06:57:53;;;;;;;7.43;5.60;;;-0.50;99.90;;;;;;5094288;28;20238;-52
2021/01/19 07:00:21;;;;;;;6.10;5.50;;;-0.60;99.90;;;;;;5094130;28;20246;-55
2021/01/19 07:02:50;;;;;;;6.33;5.03;;;-0.60;99.90;;;;;;5094182;28;20321;-49
2021/01/19 07:05:19;;;;;;;6.13;5.53;;;-0.60;99.90;;;;;;5093977;28;20313;-56
2021/01/19 07:07:47;;;;;;;9.13;6.83;;;-0.70;99.90;;;;;;5094019;28;20265;-51
2021/01/19 07:10:16;;;;;;;8.07;5.10;;;-0.70;99.90;;;;;;5094093;28;20683;-54
2021/01/19 07:13:05;;;;;;;8.67;5.87;;;-0.70;99.90;;;;;;5093498;28;20270;-54
2021/01/19 07:16:07;;;;;;;8.50;6.53;;;-0.60;99.90;;;;;;5094135;28;20744;-56
2021/01/19 07:19:01;;;;;;;8.70;6.10;;;-0.60;99.90;;;;;;5093716;28;20660;-56
2021/01/19 07:22:03;;;;;;;6.70;6.03;;;-0.50;99.90;;;;;;5093868;28;20272;-58
2021/01/19 07:24:37;;;;;;;7.67;6.00;;;-0.40;99.90;;;;;;5093593;28;20232;-54
2021/01/19 07:27:07;;;;;;;10.83;6.87;;;-0.40;99.90;;;;;;5092918;28;20238;-56
2021/01/19 07:29:36;;;;;;;7.67;6.13;;;-0.30;99.90;;;;;;5093483;28;20202;-55
2021/01/19 07:32:09;;;;;;;8.83;6.73;;;-0.30;99.90;;;;;;5093493;28;20700;-51
2021/01/19 07:34:38;;;;;;;11.47;7.60;;;-0.30;99.90;;;;;;5093458;28;20286;-54
2021/01/19 07:37:06;;;;;;;7.50;5.97;;;-0.30;99.90;;;;;;5093628;28;20234;-51
2021/01/19 07:39:34;;;;;;;9.30;7.57;;;-0.20;99.90;;;;;;5093454;28;20206;-50
2021/01/19 07:42:12;;;;;;;7.00;6.27;;;-0.10;99.90;;;;;;5093209;28;20424;-53
2021/01/19 07:44:42;;;;;;;9.60;7.40;;;0.00;99.90;;;;;;5093131;28;20669;-50
2021/01/19 07:47:12;;;;;;;9.03;8.03;;;0.10;99.90;;;;;;5093689;28;20218;-50
2021/01/19 07:49:39;;;;;;;10.90;8.03;;;0.20;99.90;;;;;;5093023;28;20211;-53
2021/01/19 07:52:15;;;;;;;8.20;6.57;;;0.30;99.90;;;;;;5092927;28;20198;-54
2021/01/19 07:54:42;;;;;;;8.80;7.50;;;0.50;99.90;;;;;;5093234;28;20240;-56
2021/01/19 07:57:12;;;;;;;7.77;6.80;;;0.60;99.90;;;;;;5092849;28;20206;-51
2021/01/19 07:59:39;;;;;;;9.13;7.30;;;0.60;99.90;;;;;;5092964;28;20329;-52
2021/01/19 08:02:06;;;;;;;12.03;9.20;;;0.80;99.90;;;;;;5092923;28;20803;-53
2021/01/19 08:04:36;;;;;;;8.33;6.30;;;0.80;99.90;;;;;;5092788;28;20289;-51
2021/01/19 08:07:15;;;;;;;8.20;7.40;;;0.80;99.90;;;;;;5092703;28;20297;-55
2021/01/19 08:09:43;;;;;;;11.70;7.63;;;0.80;99.90;;;;;;5092946;28;20206;-54
2021/01/19 08:12:12;;;;;;;10.10;7.87;;;0.80;99.90;;;;;;5092434;28;20266;-51
2021/01/19 08:14:40;;;;;;;9.73;7.07;;;0.80;99.90;;;;;;5092796;28;20211;-53
2021/01/19 08:17:08;;;;;;;9.70;7.53;;;0.80;99.90;;;;;;5092652;28;20237;-52
2021/01/19 08:19:40;;;;;;;10.00;7.07;;;0.80;99.90;;;;;;5092352;28;21115;-54
2021/01/19 08:22:10;;;;;;;9.57;7.00;;;0.70;99.90;;;;;;5092516;28;20669;-54
2021/01/19 08:24:41;;;;;;;12.70;8.43;;;0.70;99.90;;;;;;5092532;28;20233;-54
2021/01/19 08:27:09;;;;;;;10.30;7.27;;;0.70;99.90;;;;;;5092422;28;20287;-52
2021/01/19 08:29:37;;;;;;;9.67;7.93;;;0.80;99.90;;;;;;5092478;28;20209;-54
2021/01/19 08:32:07;;;;;;;8.60;7.07;;;0.80;99.90;;;;;;5092266;28;20207;-52
2021/01/19 08:34:37;;;;;;;11.73;7.60;;;0.80;99.90;;;;;;5092523;28;20218;-51
2021/01/19 08:37:04;;;;;;;8.27;7.10;;;0.80;99.90;;;;;;5092372;28;20577;-56
2021/01/19 08:39:31;;;;;;;7.93;6.93;;;0.80;99.90;;;;;;5092153;28;20207;-53
2021/01/19 08:42:03;;;;;;;8.33;7.07;;;0.90;99.90;;;;;;5092032;28;20203;-52
2021/01/19 08:44:32;;;;;;;12.17;9.63;;;1.00;99.90;;;;;;5091714;28;20230;-53
2021/01/19 08:47:00;;;;;;;9.60;7.60;;;1.20;99.90;;;;;;5092081;28;20222;-53
2021/01/19 08:49:34;;;;;;;13.83;11.83;;;1.30;99.90;;;;;;5092445;28;20267;-51
2021/01/19 08:52:02;;;;;;;12.70;8.80;;;1.50;99.90;;;;;;5092107;28;20207;-50
2021/01/19 08:54:31;;;;;;;11.53;8.73;;;1.60;99.90;;;;;;5091811;28;20642;-57
2021/01/19 08:56:58;;;;;;;10.07;8.60;;;1.70;99.90;;;;;;5091894;28;20238;-52
2021/01/19 08:59:50;;;;;;;9.47;8.30;;;1.70;99.90;;;;;;5092123;28;20630;-51
2021/01/19 09:02:17;;;;;;;12.30;8.20;;;1.80;99.90;;;;;;5092078;28;20233;-51
2021/01/19 09:04:48;;;;;;;11.53;7.57;;;1.90;99.90;;;;;;5091925;28;20213;-56
2021/01/19 09:07:15;;;;;;;11.53;8.57;;;2.00;99.90;;;;;;5091932;28;20233;-53
2021/01/19 09:09:46;;;;;;;8.90;8.10;;;2.10;99.90;;;;;;5091584;28;20736;-52
2021/01/19 09:12:17;;;;;;;9.10;7.87;;;2.20;99.90;;;;;;5091759;28;20234;-56
2021/01/19 09:14:50;;;;;;;8.53;7.40;;;2.30;99.90;;;;;;5091622;28;20206;-53
2021/01/19 09:17:23;;;;;;;9.17;8.27;;;2.20;99.90;;;;;;5091987;28;20210;-58
2021/01/19 09:20:01;;;;;;;9.53;8.30;;;2.20;99.90;;;;;;5091964;28;20291;-57
2021/01/19 09:22:28;;;;;;;9.40;7.73;;;2.20;99.90;;;;;;5091420;28;20285;-57
2021/01/19 09:24:57;;;;;;;9.70;8.63;;;2.30;99.90;;;;;;5092025;28;20303;-56
2021/01/19 09:27:24;;;;;;;9.30;8.20;;;2.40;99.90;;;;;;5091644;28;20238;-51
2021/01/19 09:30:02;;;;;;;11.50;8.47;;;2.50;99.90;;;;;;5091600;28;20290;-54
2021/01/19 09:32:30;;;;;;;9.10;8.07;;;2.50;99.90;;;;;;5091440;28;20207;-54
2021/01/19 09:34:58;;;;;;;9.47;7.73;;;2.50;99.90;;;;;;5091783;28;20218;-53
2021/01/19 09:37:27;;;;;;;10.33;8.27;;;2.50;99.90;;;;;;5091486;28;20711;-51
2021/01/19 09:39:54;;;;;;;9.33;7.43;;;2.60;99.90;;;;;;5091418;28;20207;-50
2021/01/19 09:42:22;;;;;;;11.73;8.20;;;2.60;99.90;;;;;;5091378;28;20203;-51
2021/01/19 09:44:49;;;;;;;9.23;6.67;;;2.60;99.90;;;;;;5091582;28;20208;-55
2021/01/19 09:47:23;;;;;;;8.30;7.27;;;2.60;99.90;;;;;;5091674;28;20214;-53
2021/01/19 09:49:52;;;;;;;8.97;6.70;;;2.70;99.90;;;;;;5091814;28;20630;-51
2021/01/19 09:52:28;;;;;;;8.63;6.60;;;2.90;99.90;;;;;;5095418;28;20203;-54
2021/01/19 09:55:09;;;;;;;8.13;6.47;;;3.00;99.90;;;;;;5095386;28;20268;-50
2021/01/19 09:57:36;;;;;;;9.80;7.07;;;3.10;99.90;;;;;;5095229;28;20219;-52
2021/01/19 10:00:06;;;;;;;8.17;7.33;;;3.20;99.90;;;;;;5095231;28;20242;-53
2021/01/19 10:02:35;;;;;;;9.60;7.60;;;3.30;99.90;;;;;;5095223;28;20227;-50
2021/01/19 10:05:04;;;;;;;10.37;7.70;;;3.40;99.90;;;;;;5095185;28;20216;-50
2021/01/19 10:07:31;;;;;;;7.00;6.23;;;3.50;99.90;;;;;;5094988;28;20289;-54
2021/01/19 10:10:14;;;;;;;10.20;7.47;;;3.60;99.90;;;;;;5094785;28;20295;-56
2021/01/19 10:12:43;;;;;;;9.53;7.23;;;3.70;99.90;;;;;;5093333;28;20253;-53
2021/01/19 10:15:13;;;;;;;8.57;6.77;;;3.90;99.70;;;;;;5094739;28;20271;-58
2021/01/19 10:17:40;;;;;;;8.67;6.90;;;3.90;99.40;;;;;;5094936;28;20237;-56
2021/01/19 10:20:10;;;;;;;9.33;6.50;;;4.00;99.40;;;;;;5094623;28;20664;-50
2021/01/19 10:22:38;;;;;;;10.93;7.10;;;4.20;99.50;;;;;;5094931;28;20255;-52
2021/01/19 10:25:08;;;;;;;10.87;8.67;;;4.40;99.20;;;;;;5094847;28;20236;-48
2021/01/19 10:27:40;;;;;;;11.57;9.50;;;4.60;98.80;;;;;;5094791;28;20624;-48
2021/01/19 10:30:08;;;;;;;14.48;11.82;;;4.70;98.60;;;;;;5094672;28;20582;-51
2021/01/19 10:32:47;;;;;;;11.83;9.73;;;4.80;98.30;;;;;;5094546;28;20203;-52
2021/01/19 10:35:24;;;;;;;9.70;6.70;;;4.80;98.10;;;;;;5094767;28;20209;-49
2021/01/19 10:37:53;;;;;;;8.97;6.73;;;4.80;98.20;;;;;;5094609;28;20264;-56
2021/01/19 10:40:20;;;;;;;9.93;7.17;;;5.00;98.10;;;;;;5094436;28;20254;-51
2021/01/19 10:42:47;;;;;;;6.33;5.60;;;5.00;97.70;;;;;;5094393;28;20223;-51
2021/01/19 10:45:24;;;;;;;6.75;6.05;;;5.00;97.80;;;;;;5094280;28;20301;-50
2021/01/19 10:47:52;;;;;;;6.53;5.93;;;5.00;97.10;;;;;;5094457;28;20234;-47
2021/01/19 10:50:21;;;;;;;7.83;6.33;;;5.00;97.40;;;;;;5094306;28;20579;-48
2021/01/19 10:52:58;;;;;;;7.13;6.07;;;5.00;97.50;;;;;;5094097;28;20213;-47
2021/01/19 10:55:26;;;;;;;13.07;9.00;;;5.10;97.50;;;;;;5093873;28;20257;-54
2021/01/19 10:57:58;;;;;;;9.63;5.83;;;5.30;97.50;;;;;;5093992;28;20213;-54
2021/01/19 11:00:26;;;;;;;8.43;6.33;;;5.50;97.10;;;;;;5094163;28;20207;-50
2021/01/19 11:02:55;;;;;;;4.93;3.63;;;5.70;96.80;;;;;;5092538;28;20386;-49
2021/01/19 11:05:23;;;;;;;3.65;2.80;;;5.70;95.90;;;;;;5093688;28;20206;-50
2021/01/19 11:07:51;;;;;;;4.63;3.13;;;5.70;95.40;;;;;;5094501;28;20249;-53
2021/01/19 11:10:20;;;;;;;3.37;2.23;;;5.70;95.20;;;;;;5093848;28;20549;-51
2021/01/19 11:12:47;;;;;;;6.47;3.80;;;5.70;95.70;;;;;;5093591;28;20227;-50
2021/01/19 11:15:15;;;;;;;3.10;2.63;;;5.70;95.10;;;;;;5093987;28;20644;-52
2021/01/19 11:17:42;;;;;;;2.70;2.50;;;5.90;95.10;;;;;;5093822;28;20211;-50
2021/01/19 11:20:14;;;;;;;3.77;3.30;;;6.00;94.50;;;;;;5093593;28;20207;-51
2021/01/19 11:22:44;;;;;;;2.97;2.67;;;6.00;93.80;;;;;;5093507;28;20227;-52
2021/01/19 11:25:13;;;;;;;3.10;2.80;;;6.00;93.80;;;;;;5093552;28;20260;-47
2021/01/19 11:27:40;;;;;;;4.17;2.70;;;6.10;94.00;;;;;;5093516;28;20309;-46
2021/01/19 11:30:08;;;;;;;3.80;2.67;;;6.10;93.90;;;;;;5093634;28;20293;-50
2021/01/19 11:32:35;;;;;;;3.03;2.55;;;6.20;92.80;;;;;;5093501;28;20298;-51
2021/01/19 11:35:04;;;;;;;2.60;2.23;;;6.10;92.60;;;;;;5093145;28;20256;-49
2021/01/19 11:37:31;;;;;;;3.38;3.08;;;6.00;93.00;;;;;;5093018;28;20206;-53
2021/01/19 11:39:58;;;;;;;3.25;2.60;;;6.10;93.00;;;;;;5093503;28;20210;-50
2021/01/19 11:42:26;;;;;;;3.03;2.60;;;6.20;93.00;;;;;;5093204;28;20255;-50
2021/01/19 11:44:53;;;;;;;2.93;2.73;;;6.20;92.90;;;;;;5093125;28;20203;-48
2021/01/19 11:47:20;;;;;;;4.30;2.60;;;6.20;92.20;;;;;;5093307;28;20264;-53
2021/01/19 11:49:49;;;;;;;3.37;2.73;;;6.20;92.30;;;;;;5093001;28;20212;-50
2021/01/19 11:52:17;;;;;;;2.57;2.37;;;6.10;91.90;;;;;;5093078;28;20232;-48
2021/01/19 11:54:46;;;;;;;3.55;2.53;;;6.00;92.30;;;;;;5093060;28;20298;-51
2021/01/19 11:57:13;;;;;;;3.05;2.75;;;5.90;92.50;;;;;;5092725;28;20202;-52
2021/01/19 11:59:41;;;;;;;4.13;3.33;;;5.90;92.40;;;;;;5092853;28;20238;-49
2021/01/19 12:02:08;;;;;;;3.35;2.40;;;5.90;92.00;;;;;;5092833;28;20206;-52
2021/01/19 12:04:35;;;;;;;3.37;3.07;;;5.80;92.30;;;;;;5092579;28;20241;-49
2021/01/19 12:07:03;;;;;;;2.58;2.38;;;5.80;92.30;;;;;;5092853;28;20299;-51
2021/01/19 12:09:30;;;;;;;2.83;2.13;;;5.80;92.30;;;;;;5092818;28;20293;-54
2021/01/19 12:11:58;;;;;;;3.80;3.28;;;5.80;92.20;;;;;;5092640;28;20281;-51
2021/01/19 12:14:25;;;;;;;3.57;3.27;;;5.70;92.30;;;;;;5092260;28;20207;-50
2021/01/19 12:16:53;;;;;;;3.57;2.93;;;5.60;92.40;;;;;;5093106;28;20203;-51
2021/01/19 12:19:20;;;;;;;3.17;2.80;;;5.60;92.50;;;;;;5092622;28;20633;-52
2021/01/19 12:21:48;;;;;;;3.30;2.60;;;5.50;92.40;;;;;;5092816;28;20290;-54
2021/01/19 12:24:15;;;;;;;4.83;2.70;;;5.50;92.70;;;;;;5092475;28;20226;-52
2021/01/19 12:26:48;;;;;;;3.93;2.70;;;5.50;92.70;;;;;;5092567;28;20266;-52
2021/01/19 12:29:16;;;;;;;2.70;2.43;;;5.40;92.60;;;;;;5092325;28;20203;-49
2021/01/19 12:31:43;;;;;;;2.67;2.40;;;5.30;92.60;;;;;;5092166;28;20214;-55
2021/01/19 12:34:11;;;;;;;2.93;2.67;;;5.30;92.60;;;;;;5092637;28;20206;-51
2021/01/19 12:36:38;;;;;;;6.67;3.10;;;5.20;92.80;;;;;;5092335;28;20568;-48
2021/01/19 12:39:05;;;;;;;3.50;2.80;;;5.20;92.70;;;;;;5092417;28;20210;-48
2021/01/19 12:41:33;;;;;;;2.90;2.60;;;5.20;92.90;;;;;;5092443;28;20206;-52
2021/01/19 12:44:01;;;;;;;2.87;2.57;;;5.20;92.90;;;;;;5092159;28;20313;-51
2021/01/19 12:46:29;;;;;;;3.20;2.57;;;5.20;92.70;;;;;;5092453;28;20316;-49
2021/01/19 12:48:56;;;;;;;2.63;2.20;;;5.10;92.70;;;;;;5092478;28;20233;-52
2021/01/19 12:51:24;;;;;;;2.67;2.13;;;5.10;92.60;;;;;;5092326;28;20211;-49
2021/01/19 12:53:51;;;;;;;3.60;2.47;;;5.00;92.80;;;;;;5092111;28;20260;-53
2021/01/19 12:56:19;;;;;;;3.13;2.73;;;4.90;93.00;;;;;;5092036;28;20632;-51
2021/01/19 12:58:46;;;;;;;4.23;2.60;;;4.90;93.10;;;;;;5092048;28;20290;-49
2021/01/19 13:01:14;;;;;;;3.80;2.70;;;4.90;93.20;;;;;;5092218;28;20234;-49
2021/01/19 13:03:42;;;;;;;2.97;2.50;;;4.90;93.30;;;;;;5091941;28;20223;-48
2021/01/19 13:06:10;;;;;;;3.03;2.73;;;4.90;93.20;;;;;;5091897;28;20238;-50
2021/01/19 13:08:38;;;;;;;2.87;2.63;;;4.90;93.20;;;;;;5092013;28;20210;-51